Time;durP1;ratioP1;P1;durP2;ratioP2;P2;SDS_P1;SDS_P2;PMS_P1;PMS_P2;Temp;Humidity;BMP_temperature;BMP_pressure;BME280_temperature;BME280_humidity;BME280_pressure;Samples;Min_cycle;Max_cycle;Signal;HPM_P1;HPM_P2
2021/07/25 00:00:54;;;;;;;6.70;4.97;;;;;;;18.57;81.09;94842.31;4971577;28;20551;-68
2021/07/25 00:03:19;;;;;;;5.93;4.78;;;;;;;19.23;80.12;94861.75;4988304;28;20492;-69
2021/07/25 00:05:45;;;;;;;7.07;4.95;;;;;;;19.57;79.24;94878.00;4990271;28;20034;-69
2021/07/25 00:08:12;;;;;;;7.13;5.72;;;;;;;19.85;78.88;94882.97;4975814;28;20090;-68
2021/07/25 00:10:44;;;;;;;7.47;5.68;;;;;;;19.96;78.41;94879.25;4995851;28;20141;-70
2021/07/25 00:13:10;;;;;;;8.38;6.22;;;;;;;19.88;78.27;94853.31;4971496;28;20065;-70
2021/07/25 00:15:36;;;;;;;6.18;5.57;;;;;;;19.97;78.40;94859.19;4971695;28;20669;-69
2021/07/25 00:18:02;;;;;;;8.18;6.50;;;;;;;20.29;78.16;94866.81;4973543;28;20031;-69
2021/07/25 00:20:27;;;;;;;6.97;6.28;;;;;;;20.36;78.22;94864.16;4971398;28;20467;-69
2021/07/25 00:22:52;;;;;;;7.10;5.72;;;;;;;20.39;77.89;94868.06;4970580;28;20051;-70
2021/07/25 00:25:21;;;;;;;6.38;5.68;;;;;;;19.60;77.61;94869.19;4990168;28;20045;-69
2021/07/25 00:27:52;;;;;;;9.18;6.20;;;;;;;19.81;79.12;94869.44;4990735;28;20484;-69
2021/07/25 00:30:18;;;;;;;9.93;6.28;;;;;;;19.87;78.34;94856.38;4991849;28;20027;-69
2021/07/25 00:32:45;;;;;;;9.13;5.82;;;;;;;19.66;78.24;94829.94;4990298;28;20428;-69
2021/07/25 00:35:10;;;;;;;11.50;6.13;;;;;;;19.93;78.13;94873.81;4990677;28;20090;-69
2021/07/25 00:37:36;;;;;;;7.50;6.38;;;;;;;19.78;77.88;94864.78;4991351;28;20468;-69
2021/07/25 00:40:02;;;;;;;7.30;6.38;;;;;;;20.12;78.22;94873.63;4996467;28;20042;-69
2021/07/25 00:42:40;;;;;;;8.00;6.25;;;;;;;20.39;78.11;94885.03;4990345;28;20045;-70
2021/07/25 00:45:06;;;;;;;8.85;6.60;;;;;;;20.28;78.08;94849.06;4992673;28;20050;-68
2021/07/25 00:47:33;;;;;;;12.18;6.35;;;;;;;20.46;77.90;94850.00;4971391;28;20042;-68
2021/07/25 00:49:58;;;;;;;10.63;6.07;;;;;;;20.64;77.91;94855.56;4983723;28;20053;-68
2021/07/25 00:52:23;;;;;;;6.57;5.70;;;;;;;20.02;78.30;94819.50;4989607;28;20050;-68
2021/07/25 00:54:49;;;;;;;8.10;5.72;;;;;;;20.17;78.32;94803.06;5000611;28;20053;-68
2021/07/25 00:57:14;;;;;;;7.70;5.57;;;;;;;20.09;78.25;94792.56;4972589;28;20027;-68
2021/07/25 00:59:40;;;;;;;8.70;5.80;;;;;;;20.34;77.96;94800.88;4970443;28;20093;-68
2021/07/25 01:02:05;;;;;;;6.63;4.97;;;;;;;20.64;78.10;94839.34;4968899;28;20039;-68
2021/07/25 01:04:51;;;;;;;6.90;5.25;;;;;;;20.64;78.38;94839.34;4968853;28;20047;-68
2021/07/25 01:07:26;;;;;;;6.57;5.70;;;;;;;20.53;78.20;94822.28;4970446;28;20429;-68
2021/07/25 01:09:59;;;;;;;9.38;6.47;;;;;;;20.71;78.39;94850.19;4973602;28;20062;-68
2021/07/25 01:12:33;;;;;;;8.45;5.28;;;;;;;20.55;78.38;94822.69;5003792;28;20058;-69
2021/07/25 01:15:00;;;;;;;7.32;6.35;;;;;;;20.63;78.33;94828.91;4972131;28;20026;-68
2021/07/25 01:17:30;;;;;;;7.07;5.30;;;;;;;20.68;78.20;94839.38;4970116;28;20031;-69
2021/07/25 01:20:10;;;;;;;8.13;6.15;;;;;;;20.62;77.42;94841.63;4985081;28;20049;-68
2021/07/25 01:22:41;;;;;;;7.93;7.07;;;;;;;20.70;78.30;94831.66;4969630;28;20031;-68
2021/07/25 01:25:09;;;;;;;8.30;7.32;;;;;;;20.92;78.42;94844.16;4969252;28;20432;-68
2021/07/25 01:27:46;;;;;;;7.90;7.00;;;;;;;20.64;78.05;94763.69;4969922;28;20081;-68
2021/07/25 01:30:18;;;;;;;7.45;5.60;;;;;;;20.67;77.64;94814.25;4970795;28;20110;-68
2021/07/25 01:32:43;;;;;;;;;;;;;;;20.69;78.13;94820.06;4970180;28;20043;-68
2021/07/25 01:35:12;;;;;;;7.82;6.50;;;;;;;20.32;78.07;94784.25;4987955;28;19953;-68
2021/07/25 01:37:38;;;;;;;8.23;6.05;;;;;;;20.68;78.59;94820.47;5004531;28;20038;-68
2021/07/25 01:40:24;;;;;;;9.68;5.95;;;;;;;20.00;77.77;94823.34;4988649;28;20042;-68
2021/07/25 01:42:51;;;;;;;8.75;6.68;;;;;;;20.20;78.17;94806.94;4988766;28;20046;-68
2021/07/25 01:45:17;;;;;;;8.80;6.75;;;;;;;20.47;78.73;94812.94;4991204;28;20029;-69
2021/07/25 01:47:42;;;;;;;7.72;7.03;;;;;;;20.48;78.57;94817.22;4989406;28;20137;-69
2021/07/25 01:50:08;;;;;;;8.43;7.57;;;;;;;20.17;77.89;94808.47;4989178;28;20117;-69
2021/07/25 01:52:34;;;;;;;8.15;7.13;;;;;;;19.84;77.73;94768.81;5003786;28;20038;-69
2021/07/25 01:55:00;;;;;;;12.73;9.48;;;;;;;20.21;78.87;94838.97;4993916;28;20073;-68
2021/07/25 01:57:25;;;;;;;9.00;7.18;;;;;;;20.38;78.75;94826.00;4988849;28;20038;-69
2021/07/25 01:59:51;;;;;;;11.20;7.13;;;;;;;20.32;78.62;94800.47;4990948;28;20026;-68
2021/07/25 02:02:16;;;;;;;7.68;6.97;;;;;;;20.37;78.28;94786.59;4988482;28;20404;-69
2021/07/25 02:04:42;;;;;;;7.45;6.72;;;;;;;19.77;77.50;94776.09;4978340;28;20034;-68
2021/07/25 02:07:07;;;;;;;8.25;7.15;;;;;;;20.19;78.64;94851.28;4970243;28;20038;-69
2021/07/25 02:09:37;;;;;;;8.95;7.40;;;;;;;20.52;78.83;94842.31;4970949;28;20030;-68
2021/07/25 02:12:06;;;;;;;9.25;6.82;;;;;;;20.34;78.60;94785.44;4991559;28;20122;-69
2021/07/25 02:14:33;;;;;;;8.88;7.05;;;;;;;20.65;77.64;94835.50;4989061;28;20046;-68
2021/07/25 02:17:00;;;;;;;8.35;7.10;;;;;;;20.60;77.53;94833.13;4985234;28;20045;-68
2021/07/25 02:19:25;;;;;;;8.32;7.50;;;;;;;20.12;77.66;94773.72;4978594;28;20038;-69
2021/07/25 02:21:51;;;;;;;11.30;7.75;;;;;;;20.12;77.14;94781.81;5004046;28;20041;-69
2021/07/25 02:24:19;;;;;;;8.93;7.13;;;;;;;19.60;77.55;94817.91;4990179;28;20033;-69
2021/07/25 02:26:45;;;;;;;7.72;6.97;;;;;;;19.80;78.46;94848.97;4969692;28;20412;-68
2021/07/25 02:29:10;;;;;;;7.57;6.78;;;;;;;20.12;79.06;94846.63;4971728;28;20058;-67
2021/07/25 02:31:35;;;;;;;9.60;7.05;;;;;;;20.25;78.75;94837.06;4973163;28;20039;-69
2021/07/25 02:34:00;;;;;;;10.27;6.78;;;;;;;19.48;79.05;94813.53;4977883;28;20042;-68
2021/07/25 02:36:26;;;;;;;13.57;7.35;;;;;;;19.13;79.52;94863.19;4992458;28;20026;-69
2021/07/25 02:38:51;;;;;;;9.63;7.13;;;;;;;18.43;83.23;94875.22;5009149;28;20025;-68
2021/07/25 02:41:16;;;;;;;8.63;6.95;;;;;;;18.71;83.77;94882.22;4992062;28;20503;-68
2021/07/25 02:43:42;;;;;;;10.02;7.65;;;;;;;18.90;82.47;94874.03;4991966;28;20089;-68
2021/07/25 02:46:07;;;;;;;9.73;7.95;;;;;;;18.56;83.05;94872.31;4986753;28;20089;-68
2021/07/25 02:48:32;;;;;;;10.88;7.07;;;;;;;18.31;83.36;94855.75;4973405;28;20025;-68
2021/07/25 02:51:00;;;;;;;11.90;6.90;;;;;;;18.66;84.04;94887.88;4993558;28;20073;-69
2021/07/25 02:53:26;;;;;;;10.02;6.07;;;;;;;18.49;85.25;94901.84;4973934;28;20516;-66
2021/07/25 02:55:52;;;;;;;11.75;7.18;;;;;;;18.72;83.88;94912.63;4992812;28;20092;-66
2021/07/25 02:58:17;;;;;;;7.05;6.20;;;;;;;18.72;83.64;94883.00;5011804;28;20127;-66
2021/07/25 03:00:43;;;;;;;9.10;5.32;;;;;;;18.44;84.64;94855.22;5011816;28;20143;-66
2021/07/25 03:03:08;;;;;;;12.63;5.70;;;;;;;18.67;83.54;94892.13;5013331;28;20026;-66
2021/07/25 03:05:33;;;;;;;7.57;5.47;;;;;;;18.98;83.14;94893.78;5011591;28;20041;-66
2021/07/25 03:07:58;;;;;;;6.20;5.18;;;;;;;18.92;83.58;94892.53;5026620;28;20400;-66
2021/07/25 03:10:24;;;;;;;6.43;5.38;;;;;;;18.87;82.73;94909.78;4996512;28;20042;-66
2021/07/25 03:12:49;;;;;;;6.05;5.45;;;;;;;19.10;82.73;94898.97;4991686;28;20041;-66
2021/07/25 03:15:15;;;;;;;9.15;6.30;;;;;;;19.48;81.65;94878.25;4993924;28;20575;-66
2021/07/25 03:17:40;;;;;;;9.77;5.55;;;;;;;19.50;80.81;94897.56;4991851;28;20051;-66
2021/07/25 03:20:06;;;;;;;8.43;5.30;;;;;;;19.76;80.25;94898.66;4991480;28;20562;-66
2021/07/25 03:22:32;;;;;;;6.35;5.72;;;;;;;19.92;80.17;94861.44;4991132;28;20050;-66
2021/07/25 03:24:57;;;;;;;11.10;5.82;;;;;;;20.06;79.43;94871.59;4985230;28;20046;-66
2021/07/25 03:27:23;;;;;;;8.50;5.30;;;;;;;19.62;79.29;94867.69;4974088;28;20027;-66
2021/07/25 03:29:48;;;;;;;6.50;5.00;;;;;;;19.17;80.79;94885.56;4991113;28;20108;-66
2021/07/25 03:32:18;;;;;;;13.15;5.03;;;;;;;18.63;81.90;94842.78;4991130;28;20165;-66
2021/07/25 03:34:44;;;;;;;7.40;5.45;;;;;;;19.11;81.47;94867.41;4990288;28;20034;-66
2021/07/25 03:37:09;;;;;;;8.10;4.53;;;;;;;19.01;81.53;94876.88;4990186;28;20519;-66
2021/07/25 03:39:34;;;;;;;10.07;5.45;;;;;;;19.61;81.03;94898.50;4988685;28;20040;-66
2021/07/25 03:42:00;;;;;;;6.35;5.15;;;;;;;19.98;79.69;94905.88;5002789;28;20122;-66
2021/07/25 03:44:25;;;;;;;6.57;5.60;;;;;;;20.14;79.67;94886.75;5010459;28;20064;-66
2021/07/25 03:46:51;;;;;;;11.45;5.07;;;;;;;20.45;79.30;94898.97;5010750;28;20054;-67
2021/07/25 03:49:17;;;;;;;7.43;6.00;;;;;;;20.25;78.89;94855.97;5026219;28;20088;-67
2021/07/25 03:51:42;;;;;;;5.80;5.10;;;;;;;20.39;78.40;94884.28;5010725;28;20026;-66
2021/07/25 03:54:07;;;;;;;7.50;5.88;;;;;;;19.78;78.51;94904.47;5009341;28;20018;-66
2021/07/25 03:56:35;;;;;;;5.90;5.32;;;;;;;20.23;79.03;94925.03;4973586;28;20039;-66
2021/07/25 03:59:01;;;;;;;7.70;5.65;;;;;;;20.49;78.64;94935.72;5008039;28;20138;-67
2021/07/25 04:01:26;;;;;;;6.43;5.13;;;;;;;20.41;78.46;94914.38;5010528;28;20121;-66
2021/07/25 04:03:51;;;;;;;7.75;5.20;;;;;;;20.51;78.09;94929.94;5006367;28;20038;-66
2021/07/25 04:06:17;;;;;;;6.05;4.97;;;;;;;20.61;78.34;94913.03;4992849;28;20029;-66
2021/07/25 04:08:42;;;;;;;9.65;5.07;;;;;;;20.86;78.37;94948.41;5009510;28;20111;-66
2021/07/25 04:11:08;;;;;;;7.95;5.25;;;;;;;20.86;77.96;94958.44;4991916;28;20042;-67
2021/07/25 04:13:33;;;;;;;7.00;5.00;;;;;;;20.93;77.20;94948.44;4990160;28;20070;-67
2021/07/25 04:15:58;;;;;;;11.27;5.22;;;;;;;20.96;77.91;94931.47;4989400;28;20043;-66
2021/07/25 04:18:24;;;;;;;9.05;4.85;;;;;;;20.92;78.19;94921.78;4992579;28;20041;-67
2021/07/25 04:20:49;;;;;;;7.53;4.95;;;;;;;21.00;77.69;94931.50;4989337;28;20070;-66
2021/07/25 04:23:14;;;;;;;6.47;4.80;;;;;;;20.98;77.12;94921.06;4990470;28;20034;-67
2021/07/25 04:25:40;;;;;;;6.80;4.97;;;;;;;21.19;77.22;94944.00;4997673;28;20057;-67
2021/07/25 04:28:06;;;;;;;7.35;6.25;;;;;;;21.28;77.45;94942.50;4985273;28;20047;-67
2021/07/25 04:30:33;;;;;;;8.18;5.55;;;;;;;21.21;77.24;94934.34;4970856;28;20503;-67
2021/07/25 04:33:00;;;;;;;8.85;6.30;;;;;;;21.11;76.41;94926.19;4972407;28;20030;-66
2021/07/25 04:35:26;;;;;;;7.90;5.90;;;;;;;21.00;76.41;94901.78;4970961;28;20039;-68
2021/07/25 04:37:52;;;;;;;14.52;6.47;;;;;;;20.90;76.18;94905.19;4982742;28;20031;-67
2021/07/25 04:40:19;;;;;;;6.93;5.90;;;;;;;20.46;77.14;94935.66;4989440;28;20092;-66
2021/07/25 04:42:51;;;;;;;8.27;5.95;;;;;;;20.60;78.07;94897.22;4997611;28;20054;-67
2021/07/25 04:45:27;;;;;;;9.77;6.25;;;;;;;20.84;77.42;94912.09;4992236;28;20030;-67
2021/07/25 04:47:58;;;;;;;10.80;7.43;;;;;;;21.01;77.22;94923.03;4990374;28;20038;-68
2021/07/25 04:50:30;;;;;;;9.02;6.75;;;;;;;21.20;77.66;94924.69;4989964;28;20649;-67
2021/07/25 04:53:00;;;;;;;6.70;5.57;;;;;;;21.22;77.79;94929.72;4989291;28;20760;-67
2021/07/25 04:55:32;;;;;;;8.20;5.55;;;;;;;21.38;77.56;94927.53;4989535;28;20177;-67
2021/07/25 04:58:07;;;;;;;;;;;;;;;21.39;76.59;94920.19;4990493;28;20037;-67
2021/07/25 05:00:37;;;;;;;9.50;6.00;;;;;;;21.24;76.10;94901.16;4988764;28;19925;-66
2021/07/25 05:03:05;;;;;;;7.15;5.90;;;;;;;21.38;76.62;94891.56;4972040;28;20512;-67
2021/07/25 05:05:32;;;;;;;8.27;5.70;;;;;;;21.45;75.56;94891.63;4987155;28;20038;-67
2021/07/25 05:08:02;;;;;;;7.10;6.10;;;;;;;21.58;75.83;94895.53;4989738;28;20121;-66
2021/07/25 05:10:29;;;;;;;9.32;6.20;;;;;;;21.69;76.10;94898.28;4989210;28;20034;-68
2021/07/25 05:13:11;;;;;;;5.93;5.32;;;;;;;21.85;76.55;94904.16;4989102;28;20455;-67
2021/07/25 05:15:41;;;;;;;8.32;5.32;;;;;;;22.00;76.29;94915.81;4986963;28;20192;-67
2021/07/25 05:18:08;;;;;;;5.47;4.97;;;;;;;22.00;76.20;94921.22;4972127;28;20034;-66
2021/07/25 05:20:52;;;;;;;11.88;5.95;;;;;;;21.98;75.63;94920.84;4985705;28;20035;-67
2021/07/25 05:23:24;;;;;;;14.10;5.93;;;;;;;21.99;75.82;94906.13;4988997;28;20042;-68
2021/07/25 05:25:54;;;;;;;6.82;5.47;;;;;;;21.95;74.98;94895.28;4989028;28;20132;-67
2021/07/25 05:28:20;;;;;;;5.93;5.32;;;;;;;21.97;75.21;94881.38;4989585;28;20439;-67
2021/07/25 05:30:52;;;;;;;7.70;5.40;;;;;;;22.15;74.87;94905.81;4989537;28;20128;-67
2021/07/25 05:33:21;;;;;;;8.20;4.70;;;;;;;22.03;74.19;94871.72;4990853;28;20070;-67
2021/07/25 05:35:47;;;;;;;5.55;4.68;;;;;;;22.30;75.12;94889.22;4970541;28;20043;-67
2021/07/25 05:38:13;;;;;;;7.38;5.50;;;;;;;22.41;75.62;94899.28;4968763;28;20054;-67
2021/07/25 05:40:38;;;;;;;7.65;5.85;;;;;;;20.79;74.02;94874.59;4986563;28;20049;-67
2021/07/25 05:43:04;;;;;;;7.65;4.95;;;;;;;20.34;78.15;94915.09;4989607;28;20337;-68
2021/07/25 05:45:29;;;;;;;5.68;5.18;;;;;;;21.22;78.08;94916.97;4988810;28;20236;-68
2021/07/25 05:47:54;;;;;;;7.50;5.18;;;;;;;21.36;75.68;94942.59;4971798;28;20485;-67
2021/07/25 05:50:20;;;;;;;7.57;5.20;;;;;;;21.46;77.30;94923.72;4985285;28;20092;-67
2021/07/25 05:52:53;;;;;;;6.60;5.82;;;;;;;21.63;76.99;94892.47;4988763;28;20034;-68
2021/07/25 05:55:20;;;;;;;6.60;4.88;;;;;;;22.04;76.14;94928.19;4981766;28;20085;-68
2021/07/25 05:57:46;;;;;;;5.80;4.78;;;;;;;22.23;75.48;94918.22;4975250;28;20061;-68
2021/07/25 06:00:11;;;;;;;9.15;4.97;;;;;;;22.49;75.81;94926.03;5010603;28;20033;-68
2021/07/25 06:02:57;;;;;;;7.15;5.45;;;;;;;22.48;75.56;94915.56;5008488;28;20085;-68
2021/07/25 06:05:24;;;;;;;8.95;5.47;;;;;;;22.60;74.17;94931.44;5009251;28;20037;-67
2021/07/25 06:07:50;;;;;;;5.43;4.85;;;;;;;23.06;75.45;94942.34;5009338;28;20038;-68
2021/07/25 06:10:16;;;;;;;5.57;5.10;;;;;;;23.14;73.21;94937.69;5001946;28;20137;-68
2021/07/25 06:12:41;;;;;;;6.55;4.47;;;;;;;23.32;73.46;94934.94;4986632;28;20109;-67
2021/07/25 06:15:08;;;;;;;5.18;4.55;;;;;;;23.45;72.18;94919.81;4971600;28;20023;-68
2021/07/25 06:17:33;;;;;;;4.57;4.05;;;;;;;23.58;71.96;94895.69;4986754;28;20035;-67
2021/07/25 06:19:58;;;;;;;7.82;3.85;;;;;;;23.71;72.58;94871.66;4989157;28;20042;-67
2021/07/25 06:22:24;;;;;;;5.10;4.40;;;;;;;24.11;72.04;94936.28;4980788;28;20038;-67
2021/07/25 06:24:49;;;;;;;4.47;3.95;;;;;;;23.57;71.62;94918.59;4972997;28;20101;-67
2021/07/25 06:27:15;;;;;;;8.07;5.00;;;;;;;23.77;72.48;94927.88;4997746;28;20028;-68
2021/07/25 06:29:41;;;;;;;5.75;4.68;;;;;;;23.69;72.65;94893.75;4988856;28;20400;-68
2021/07/25 06:32:08;;;;;;;5.53;4.95;;;;;;;23.98;71.75;94929.72;4988872;28;20042;-68
2021/07/25 06:34:34;;;;;;;5.32;4.00;;;;;;;24.18;72.47;94934.69;4988779;28;20097;-68
2021/07/25 06:37:00;;;;;;;5.07;4.38;;;;;;;24.41;71.52;94921.38;4988925;28;20035;-68
2021/07/25 06:39:25;;;;;;;4.45;4.03;;;;;;;24.56;70.38;94909.22;4990594;28;20034;-68
2021/07/25 06:41:51;;;;;;;6.30;4.20;;;;;;;24.72;71.47;94883.47;4988178;28;20042;-68
2021/07/25 06:44:16;;;;;;;5.13;4.38;;;;;;;24.61;67.10;94878.88;4973795;28;20039;-68
2021/07/25 06:46:41;;;;;;;4.57;4.15;;;;;;;24.72;68.72;94873.38;4969255;28;20042;-68
2021/07/25 06:49:07;;;;;;;5.25;3.70;;;;;;;24.85;69.01;94887.25;4974770;28;20045;-68
2021/07/25 06:51:32;;;;;;;4.38;4.00;;;;;;;24.99;70.21;94886.38;4988185;28;20054;-67
2021/07/25 06:53:57;;;;;;;5.05;4.00;;;;;;;24.38;67.87;94876.72;4970647;28;20472;-68
2021/07/25 06:56:23;;;;;;;6.22;3.80;;;;;;;24.07;69.48;94911.06;4968791;28;20043;-68
2021/07/25 06:58:48;;;;;;;5.35;4.47;;;;;;;24.02;70.28;94913.41;4994986;28;20049;-67
2021/07/25 07:01:13;;;;;;;4.43;4.03;;;;;;;24.12;69.91;94907.94;4982014;28;20511;-68
2021/07/25 07:03:39;;;;;;;7.45;4.07;;;;;;;24.59;69.29;94899.50;4970464;28;20023;-67
2021/07/25 07:06:10;;;;;;;5.32;4.00;;;;;;;24.63;69.60;94898.31;4990108;28;20084;-67
2021/07/25 07:08:35;;;;;;;5.50;4.20;;;;;;;23.41;68.68;94877.53;4988555;28;20046;-67
2021/07/25 07:11:01;;;;;;;5.03;3.88;;;;;;;23.90;70.54;94862.22;4988208;28;20045;-66
2021/07/25 07:13:27;;;;;;;3.88;3.47;;;;;;;24.55;70.02;94866.91;4997243;28;20039;-67
2021/07/25 07:15:52;;;;;;;6.45;3.80;;;;;;;25.07;70.55;94894.06;4984269;28;20131;-64
2021/07/25 07:18:19;;;;;;;5.32;3.92;;;;;;;24.46;68.83;94801.31;4974523;28;20062;-64
2021/07/25 07:20:44;;;;;;;3.95;3.55;;;;;;;25.34;69.75;94902.38;4972236;28;20086;-64
2021/07/25 07:23:12;;;;;;;5.10;3.50;;;;;;;25.54;70.20;94896.31;4986047;28;20054;-66
2021/07/25 07:25:42;;;;;;;4.38;3.97;;;;;;;25.61;68.96;94888.84;4983271;28;20042;-77
2021/07/25 07:28:10;;;;;;;4.57;3.65;;;;;;;26.13;69.77;94896.81;4989717;28;20035;-81
2021/07/25 07:30:36;;;;;;;4.28;3.90;;;;;;;26.29;67.91;94885.28;4964781;28;20087;-80
2021/07/25 07:33:12;;;;;;;3.58;3.30;;;;;;;26.54;66.61;94889.63;4981754;28;20023;-74
2021/07/25 07:35:38;;;;;;;5.13;3.67;;;;;;;27.02;67.64;94893.94;4973073;28;20117;-72
2021/07/25 07:38:04;;;;;;;3.85;3.55;;;;;;;27.34;67.56;94905.09;4971967;28;20047;-84
2021/07/25 07:40:35;;;;;;;3.63;3.33;;;;;;;27.26;65.78;94900.94;4971114;28;20094;-81
2021/07/25 07:43:01;;;;;;;3.95;3.05;;;;;;;27.01;62.63;94912.28;4982708;28;20042;-82
2021/07/25 07:46:20;;;;;;;4.50;3.72;;;;;;;27.64;65.74;94906.09;4976707;28;20022;-83
2021/07/25 07:48:45;;;;;;;3.65;3.35;;;;;;;28.02;62.65;94912.03;4973936;28;20126;-84
2021/07/25 07:51:10;;;;;;;3.78;3.47;;;;;;;28.22;62.15;94909.25;4976233;28;20163;-79
2021/07/25 07:53:36;;;;;;;3.45;3.15;;;;;;;28.42;63.16;94920.19;4990422;28;20377;-76
2021/07/25 07:56:01;;;;;;;3.22;3.03;;;;;;;28.50;56.93;94924.28;4991324;28;20042;-75
2021/07/25 07:58:26;;;;;;;4.25;3.05;;;;;;;28.73;60.63;94931.59;4990624;28;20050;-74
2021/07/25 08:00:51;;;;;;;3.90;3.20;;;;;;;29.04;62.59;94923.84;4972035;28;20113;-75
2021/07/25 08:03:17;;;;;;;3.88;3.03;;;;;;;29.16;60.75;94938.81;4973794;28;20038;-72
2021/07/25 08:05:43;;;;;;;3.13;2.90;;;;;;;29.16;61.18;94963.47;4988561;28;20366;-78
2021/07/25 08:08:08;;;;;;;4.10;3.10;;;;;;;28.96;61.39;94971.75;4993872;28;20038;-74
2021/07/25 08:10:33;;;;;;;3.20;2.83;;;;;;;28.61;51.68;94979.59;4995730;28;20043;-76
2021/07/25 08:13:00;;;;;;;4.05;3.40;;;;;;;27.83;59.65;94998.28;4984711;28;20038;-81
2021/07/25 08:15:25;;;;;;;4.95;3.20;;;;;;;26.86;55.28;94979.94;4995189;28;20022;-82
2021/07/25 08:17:50;;;;;;;3.78;3.25;;;;;;;26.02;53.12;94974.44;4993248;28;20096;-81
2021/07/25 08:20:17;;;;;;;3.88;3.30;;;;;;;24.20;61.78;94992.13;4991109;28;20077;-78
2021/07/25 08:22:43;;;;;;;4.20;3.00;;;;;;;23.90;60.74;94979.03;4978584;28;20074;-76
2021/07/25 08:25:09;;;;;;;3.55;3.25;;;;;;;23.83;63.38;94928.22;4970397;28;20031;-79
2021/07/25 08:27:35;;;;;;;3.42;3.20;;;;;;;22.84;63.72;94903.56;4969240;28;20185;-76
2021/07/25 08:30:01;;;;;;;4.00;3.65;;;;;;;22.40;66.89;94965.50;4988025;28;20065;-75
2021/07/25 08:32:27;;;;;;;3.97;3.67;;;;;;;22.61;64.84;94926.81;5002411;28;20070;-72
2021/07/25 08:34:52;;;;;;;3.50;3.17;;;;;;;22.61;65.56;94938.41;4991323;28;20503;-71
2021/07/25 08:37:18;;;;;;;3.67;3.30;;;;;;;22.99;66.01;94917.94;4990050;28;20391;-73
2021/07/25 08:39:43;;;;;;;3.90;3.60;;;;;;;23.80;64.63;94951.53;5003653;28;20034;-70
2021/07/25 08:42:11;;;;;;;3.85;3.55;;;;;;;24.02;63.68;94919.63;4972155;28;20031;-68
2021/07/25 08:44:45;;;;;;;4.75;3.65;;;;;;;24.04;59.79;94949.09;4988124;28;20049;-69
2021/07/25 08:47:18;;;;;;;3.80;3.50;;;;;;;23.86;63.96;94943.75;4990134;28;20046;-73
2021/07/25 08:49:50;;;;;;;4.50;3.50;;;;;;;24.37;63.22;94939.66;4989610;28;20500;-71
2021/07/25 08:52:33;;;;;;;3.55;3.25;;;;;;;24.83;59.14;94903.97;4982513;28;20047;-72
2021/07/25 08:55:05;;;;;;;4.25;3.83;;;;;;;25.30;57.86;94941.72;4970670;28;20096;-75
2021/07/25 08:57:33;;;;;;;5.35;3.72;;;;;;;25.00;56.91;94890.63;4968368;28;20031;-82
2021/07/25 08:59:59;;;;;;;7.20;3.35;;;;;;;26.60;61.90;94945.25;5005935;28;20165;-70
2021/07/25 09:02:32;;;;;;;3.60;3.28;;;;;;;26.32;61.61;94903.56;4989615;28;20035;-77
2021/07/25 09:04:58;;;;;;;4.63;4.22;;;;;;;26.81;58.72;94895.81;4989113;28;20050;-68
2021/07/25 09:07:28;;;;;;;4.20;3.80;;;;;;;27.66;56.73;94925.59;4990093;28;20038;-74
2021/07/25 09:10:03;;;;;;;4.00;3.70;;;;;;;27.99;55.90;94886.28;4989112;28;20069;-79
2021/07/25 09:12:30;;;;;;;5.60;3.88;;;;;;;27.31;58.23;94853.28;4991752;28;20034;-78
2021/07/25 09:15:03;;;;;;;4.50;4.00;;;;;;;27.96;57.65;94891.84;4988926;28;20631;-70
2021/07/25 09:17:29;;;;;;;4.15;3.75;;;;;;;27.72;56.95;94842.72;5005075;28;20033;-73
2021/07/25 09:20:13;;;;;;;5.75;3.85;;;;;;;28.07;56.29;94910.75;5009042;28;20048;-69
2021/07/25 09:22:54;;;;;;;4.10;3.80;;;;;;;27.91;52.94;94906.00;4999258;28;20496;-72
2021/07/25 09:25:20;;;;;;;;;;;;;;;28.20;55.38;94906.16;4990154;28;20532;-71
2021/07/25 09:27:46;;;;;;;3.87;3.50;;;;;;;28.13;55.46;94901.63;4969933;28;20017;-72
2021/07/25 09:30:19;;;;;;;5.00;3.80;;;;;;;27.51;54.47;94884.09;4987436;28;20085;-78
2021/07/25 09:32:45;;;;;;;3.58;3.30;;;;;;;27.31;51.93;94861.47;4988381;28;20035;-76
2021/07/25 09:35:35;;;;;;;3.58;3.28;;;;;;;27.81;50.96;94850.38;4976517;28;20082;-79
2021/07/25 09:38:03;;;;;;;4.60;4.20;;;;;;;28.42;56.74;94904.56;4982798;28;20165;-78
2021/07/25 09:40:31;;;;;;;3.95;3.60;;;;;;;29.01;55.13;94917.25;4982395;28;20074;-81
2021/07/25 09:43:24;;;;;;;5.05;4.05;;;;;;;29.29;56.10;94890.38;4973249;28;20121;-78
2021/07/25 09:45:55;;;;;;;4.68;4.28;;;;;;;29.41;50.53;94922.53;4989697;28;20076;-84
2021/07/25 09:48:28;;;;;;;4.65;4.20;;;;;;;29.50;54.86;94913.69;5007924;28;20050;-74
2021/07/25 09:50:57;;;;;;;3.60;3.28;;;;;;;29.36;54.48;94908.59;4989432;28;20038;-73
2021/07/25 09:53:22;;;;;;;4.45;3.70;;;;;;;29.27;47.36;94876.31;4989339;28;20038;-74
2021/07/25 09:55:49;;;;;;;4.93;4.35;;;;;;;29.58;48.92;94893.13;4993795;28;20468;-80
2021/07/25 09:58:14;;;;;;;4.85;3.90;;;;;;;29.13;46.71;94880.22;4984748;28;20062;-69
2021/07/25 10:00:44;;;;;;;4.55;3.70;;;;;;;29.19;49.31;94880.47;4988253;28;20114;-76
2021/07/25 10:03:33;;;;;;;3.88;3.58;;;;;;;29.26;54.40;94889.25;4971677;28;20038;-74
2021/07/25 10:05:59;;;;;;;4.50;3.85;;;;;;;28.81;48.79;94875.47;4970614;28;20062;-71
2021/07/25 10:08:25;;;;;;;4.40;3.67;;;;;;;28.73;50.42;94868.66;4985256;28;20038;-74
2021/07/25 10:10:52;;;;;;;3.58;3.20;;;;;;;28.83;52.09;94870.38;4987387;28;20035;-72
2021/07/25 10:13:21;;;;;;;4.03;3.13;;;;;;;29.03;48.30;94875.78;4983079;28;20466;-82
2021/07/25 10:15:57;;;;;;;4.80;4.28;;;;;;;28.75;45.04;94872.50;4968642;28;20049;-76
2021/07/25 10:18:24;;;;;;;3.63;3.33;;;;;;;28.53;53.90;94870.69;4970638;28;20558;-72
2021/07/25 10:20:55;;;;;;;4.00;2.95;;;;;;;28.49;46.61;94863.34;4988280;28;20101;-75
2021/07/25 10:23:27;;;;;;;3.30;2.88;;;;;;;28.85;54.37;94854.28;5002585;28;20069;-75
2021/07/25 10:25:55;;;;;;;3.47;3.17;;;;;;;29.31;51.30;94840.63;4987284;28;20054;-75
2021/07/25 10:28:22;;;;;;;4.30;2.80;;;;;;;29.64;48.17;94850.31;4995738;28;20073;-74
2021/07/25 10:30:50;;;;;;;5.72;3.00;;;;;;;29.91;47.40;94849.91;4988171;28;20033;-74
2021/07/25 10:33:17;;;;;;;3.30;3.00;;;;;;;29.84;49.11;94855.63;4990858;28;20053;-74
2021/07/25 10:35:44;;;;;;;3.50;3.20;;;;;;;29.62;49.71;94854.66;4970134;28;20527;-75
2021/07/25 10:38:10;;;;;;;3.20;2.90;;;;;;;29.62;43.74;94833.50;4986306;28;20148;-73
2021/07/25 10:40:36;;;;;;;3.72;3.13;;;;;;;30.04;49.74;94844.44;4987635;28;20046;-75
2021/07/25 10:43:02;;;;;;;4.75;2.92;;;;;;;30.34;51.55;94831.44;4981764;28;20047;-74
2021/07/25 10:45:28;;;;;;;4.03;3.20;;;;;;;30.76;48.29;94829.31;4971109;28;20097;-75
2021/07/25 10:48:11;;;;;;;6.68;3.17;;;;;;;30.78;43.83;94826.91;4968527;28;20039;-73
2021/07/25 10:50:37;;;;;;;3.72;2.95;;;;;;;30.47;47.08;94841.19;4971818;28;20054;-73
2021/07/25 10:53:03;;;;;;;3.45;3.15;;;;;;;30.50;44.58;94825.81;4969977;28;20082;-72
2021/07/25 10:55:43;;;;;;;3.85;3.38;;;;;;;31.12;52.98;94839.09;4971654;28;20108;-73
2021/07/25 10:58:17;;;;;;;4.18;3.17;;;;;;;31.29;48.48;94827.56;4971048;28;20043;-72
2021/07/25 11:00:54;;;;;;;3.40;2.70;;;;;;;31.28;46.29;94837.00;4970552;28;20376;-71
2021/07/25 11:03:25;;;;;;;7.20;2.53;;;;;;;31.65;45.75;94853.78;4974275;28;20034;-72
2021/07/25 11:06:05;;;;;;;6.47;3.08;;;;;;;31.77;48.65;94861.19;4991289;28;20085;-71
2021/07/25 11:08:36;;;;;;;4.05;3.00;;;;;;;31.86;45.57;94862.50;4976096;28;20097;-72
2021/07/25 11:11:37;;;;;;;4.45;2.50;;;;;;;32.08;45.44;94860.47;4984441;28;20134;-72
2021/07/25 11:14:05;;;;;;;2.95;2.75;;;;;;;32.19;48.78;94843.56;4991226;28;20253;-69
2021/07/25 11:16:31;;;;;;;3.28;2.80;;;;;;;31.94;44.81;94847.25;4980672;28;20074;-72
2021/07/25 11:18:58;;;;;;;2.95;2.53;;;;;;;31.75;43.81;94846.34;4976140;28;20054;-65
2021/07/25 11:21:30;;;;;;;2.90;2.63;;;;;;;31.53;45.02;94835.34;4993781;28;20034;-66
2021/07/25 11:23:55;;;;;;;3.40;3.10;;;;;;;31.61;50.01;94830.38;4972304;28;20027;-65
2021/07/25 11:26:34;;;;;;;3.25;2.95;;;;;;;31.52;45.88;94825.56;4986689;28;20050;-65
2021/07/25 11:29:03;;;;;;;2.70;2.50;;;;;;;30.62;40.36;94833.28;4993012;28;20448;-65
2021/07/25 11:31:37;;;;;;;3.35;2.70;;;;;;;29.72;40.73;94832.44;4991867;28;20058;-65
2021/07/25 11:34:05;;;;;;;3.00;2.70;;;;;;;29.68;43.13;94834.50;4991012;28;20035;-65
2021/07/25 11:36:31;;;;;;;3.05;2.72;;;;;;;30.45;47.51;94840.09;5008453;28;20030;-65
2021/07/25 11:38:59;;;;;;;2.80;2.60;;;;;;;30.35;39.90;94835.69;4991640;28;20668;-64